sensor_id;sensor_type;location;lat;lon;timestamp;P1;durP1;ratioP1;P2;durP2;ratioP2
12968;SDS011;6549;53.128;8.182;2023-04-25T00:01:08;18.50;;;4.07;;
12968;SDS011;6549;53.128;8.182;2023-04-25T00:04:09;19.70;;;4.28;;
12968;SDS011;6549;53.128;8.182;2023-04-25T00:07:09;20.10;;;3.95;;
12968;SDS011;6549;53.128;8.182;2023-04-25T00:10:10;17.40;;;4.50;;
12968;SDS011;6549;53.128;8.182;2023-04-25T00:13:13;16.02;;;3.80;;
12968;SDS011;6549;53.128;8.182;2023-04-25T00:16:14;16.92;;;4.03;;
12968;SDS011;6549;53.128;8.182;2023-04-25T00:19:15;13.30;;;3.90;;
12968;SDS011;6549;53.128;8.182;2023-04-25T00:22:16;19.60;;;4.18;;
12968;SDS011;6549;53.128;8.182;2023-04-25T00:25:17;16.20;;;3.83;;
12968;SDS011;6549;53.128;8.182;2023-04-25T00:28:17;14.48;;;4.20;;
12968;SDS011;6549;53.128;8.182;2023-04-25T00:31:18;22.38;;;3.95;;
12968;SDS011;6549;53.128;8.182;2023-04-25T00:34:18;16.55;;;4.22;;
12968;SDS011;6549;53.128;8.182;2023-04-25T00:37:18;16.25;;;4.40;;
12968;SDS011;6549;53.128;8.182;2023-04-25T00:40:19;17.30;;;3.85;;
12968;SDS011;6549;53.128;8.182;2023-04-25T00:43:20;19.70;;;4.25;;
12968;SDS011;6549;53.128;8.182;2023-04-25T00:46:20;17.02;;;4.38;;
12968;SDS011;6549;53.128;8.182;2023-04-25T00:49:21;14.23;;;3.85;;
12968;SDS011;6549;53.128;8.182;2023-04-25T00:52:21;22.58;;;4.18;;
12968;SDS011;6549;53.128;8.182;2023-04-25T00:55:21;20.00;;;3.63;;
12968;SDS011;6549;53.128;8.182;2023-04-25T00:58:22;19.05;;;3.97;;
12968;SDS011;6549;53.128;8.182;2023-04-25T01:01:23;15.88;;;4.15;;
12968;SDS011;6549;53.128;8.182;2023-04-25T01:04:23;15.95;;;4.15;;
12968;SDS011;6549;53.128;8.182;2023-04-25T01:07:24;15.32;;;4.00;;
12968;SDS011;6549;53.128;8.182;2023-04-25T01:10:24;15.25;;;4.03;;
12968;SDS011;6549;53.128;8.182;2023-04-25T01:13:25;12.30;;;3.58;;
12968;SDS011;6549;53.128;8.182;2023-04-25T01:16:25;17.35;;;3.88;;
12968;SDS011;6549;53.128;8.182;2023-04-25T01:19:26;19.13;;;4.88;;
12968;SDS011;6549;53.128;8.182;2023-04-25T01:22:26;20.73;;;4.43;;
12968;SDS011;6549;53.128;8.182;2023-04-25T01:25:26;17.98;;;4.20;;
12968;SDS011;6549;53.128;8.182;2023-04-25T01:28:27;12.07;;;3.35;;
12968;SDS011;6549;53.128;8.182;2023-04-25T01:31:28;12.32;;;3.85;;
12968;SDS011;6549;53.128;8.182;2023-04-25T01:34:29;14.20;;;4.05;;
12968;SDS011;6549;53.128;8.182;2023-04-25T01:37:29;16.35;;;3.70;;
12968;SDS011;6549;53.128;8.182;2023-04-25T01:40:30;12.38;;;3.75;;
12968;SDS011;6549;53.128;8.182;2023-04-25T01:43:32;15.52;;;3.95;;
12968;SDS011;6549;53.128;8.182;2023-04-25T01:46:33;13.32;;;3.47;;
12968;SDS011;6549;53.128;8.182;2023-04-25T01:49:34;15.80;;;4.00;;
12968;SDS011;6549;53.128;8.182;2023-04-25T01:52:34;14.70;;;3.83;;
12968;SDS011;6549;53.128;8.182;2023-04-25T01:55:35;13.23;;;3.97;;
12968;SDS011;6549;53.128;8.182;2023-04-25T01:58:35;15.63;;;3.88;;
12968;SDS011;6549;53.128;8.182;2023-04-25T02:01:35;14.27;;;4.00;;
12968;SDS011;6549;53.128;8.182;2023-04-25T02:04:36;12.60;;;3.40;;
12968;SDS011;6549;53.128;8.182;2023-04-25T02:07:36;12.15;;;3.58;;
12968;SDS011;6549;53.128;8.182;2023-04-25T02:10:37;12.65;;;3.88;;
12968;SDS011;6549;53.128;8.182;2023-04-25T02:13:37;15.30;;;3.80;;
12968;SDS011;6549;53.128;8.182;2023-04-25T02:16:38;12.45;;;3.72;;
12968;SDS011;6549;53.128;8.182;2023-04-25T02:19:38;16.85;;;4.82;;
12968;SDS011;6549;53.128;8.182;2023-04-25T02:22:38;19.38;;;4.30;;
12968;SDS011;6549;53.128;8.182;2023-04-25T02:25:39;15.35;;;3.17;;
12968;SDS011;6549;53.128;8.182;2023-04-25T02:28:39;15.35;;;3.33;;
12968;SDS011;6549;53.128;8.182;2023-04-25T02:31:40;16.10;;;4.10;;
12968;SDS011;6549;53.128;8.182;2023-04-25T02:34:40;14.05;;;4.20;;
12968;SDS011;6549;53.128;8.182;2023-04-25T02:37:40;14.20;;;3.50;;
12968;SDS011;6549;53.128;8.182;2023-04-25T02:40:41;14.30;;;3.53;;
12968;SDS011;6549;53.128;8.182;2023-04-25T02:43:41;16.02;;;3.55;;
12968;SDS011;6549;53.128;8.182;2023-04-25T02:46:42;10.13;;;3.75;;
12968;SDS011;6549;53.128;8.182;2023-04-25T02:49:42;11.20;;;3.65;;
12968;SDS011;6549;53.128;8.182;2023-04-25T02:52:43;15.93;;;3.35;;
12968;SDS011;6549;53.128;8.182;2023-04-25T02:55:43;16.52;;;3.47;;
12968;SDS011;6549;53.128;8.182;2023-04-25T02:58:43;15.45;;;3.30;;
12968;SDS011;6549;53.128;8.182;2023-04-25T03:01:45;13.00;;;3.20;;
12968;SDS011;6549;53.128;8.182;2023-04-25T03:04:45;12.63;;;3.10;;
12968;SDS011;6549;53.128;8.182;2023-04-25T03:07:46;16.80;;;3.30;;
12968;SDS011;6549;53.128;8.182;2023-04-25T03:10:46;12.50;;;3.40;;
12968;SDS011;6549;53.128;8.182;2023-04-25T03:13:46;18.52;;;3.80;;
12968;SDS011;6549;53.128;8.182;2023-04-25T03:16:47;10.35;;;2.45;;
12968;SDS011;6549;53.128;8.182;2023-04-25T03:19:47;13.73;;;2.90;;
12968;SDS011;6549;53.128;8.182;2023-04-25T03:22:48;12.30;;;3.10;;
12968;SDS011;6549;53.128;8.182;2023-04-25T03:25:48;15.45;;;3.20;;
12968;SDS011;6549;53.128;8.182;2023-04-25T03:28:48;11.05;;;3.08;;
12968;SDS011;6549;53.128;8.182;2023-04-25T03:31:49;12.02;;;2.80;;
12968;SDS011;6549;53.128;8.182;2023-04-25T03:34:49;9.25;;;2.63;;
12968;SDS011;6549;53.128;8.182;2023-04-25T03:37:50;15.70;;;2.72;;
12968;SDS011;6549;53.128;8.182;2023-04-25T03:40:51;11.32;;;2.88;;
12968;SDS011;6549;53.128;8.182;2023-04-25T03:43:52;15.15;;;2.47;;
12968;SDS011;6549;53.128;8.182;2023-04-25T03:46:53;13.77;;;3.33;;
12968;SDS011;6549;53.128;8.182;2023-04-25T03:49:53;12.25;;;3.22;;
12968;SDS011;6549;53.128;8.182;2023-04-25T03:52:53;10.40;;;2.53;;
12968;SDS011;6549;53.128;8.182;2023-04-25T03:55:54;16.08;;;3.08;;
12968;SDS011;6549;53.128;8.182;2023-04-25T03:58:54;12.50;;;2.67;;
12968;SDS011;6549;53.128;8.182;2023-04-25T04:01:54;11.82;;;2.83;;
12968;SDS011;6549;53.128;8.182;2023-04-25T04:04:55;12.05;;;2.58;;
12968;SDS011;6549;53.128;8.182;2023-04-25T04:07:56;11.18;;;2.50;;
12968;SDS011;6549;53.128;8.182;2023-04-25T04:10:57;10.00;;;2.50;;
12968;SDS011;6549;53.128;8.182;2023-04-25T04:13:58;10.32;;;2.38;;
12968;SDS011;6549;53.128;8.182;2023-04-25T04:16:59;11.65;;;2.63;;
12968;SDS011;6549;53.128;8.182;2023-04-25T04:19:59;13.05;;;2.53;;
12968;SDS011;6549;53.128;8.182;2023-04-25T04:22:59;12.25;;;2.45;;
12968;SDS011;6549;53.128;8.182;2023-04-25T04:26:01;13.10;;;2.42;;
12968;SDS011;6549;53.128;8.182;2023-04-25T04:29:01;11.95;;;2.65;;
12968;SDS011;6549;53.128;8.182;2023-04-25T04:32:01;10.75;;;3.10;;
12968;SDS011;6549;53.128;8.182;2023-04-25T04:35:02;14.30;;;4.70;;
12968;SDS011;6549;53.128;8.182;2023-04-25T04:38:03;15.75;;;3.25;;
12968;SDS011;6549;53.128;8.182;2023-04-25T04:41:03;15.68;;;4.45;;
12968;SDS011;6549;53.128;8.182;2023-04-25T04:44:04;15.82;;;3.78;;
12968;SDS011;6549;53.128;8.182;2023-04-25T04:47:04;9.88;;;2.60;;
12968;SDS011;6549;53.128;8.182;2023-04-25T04:50:07;8.50;;;2.28;;
12968;SDS011;6549;53.128;8.182;2023-04-25T04:53:09;10.63;;;2.25;;
12968;SDS011;6549;53.128;8.182;2023-04-25T04:56:09;10.13;;;2.13;;
12968;SDS011;6549;53.128;8.182;2023-04-25T04:59:09;8.25;;;2.50;;
12968;SDS011;6549;53.128;8.182;2023-04-25T05:02:10;9.85;;;2.80;;
12968;SDS011;6549;53.128;8.182;2023-04-25T05:05:10;11.65;;;2.63;;
12968;SDS011;6549;53.128;8.182;2023-04-25T05:08:11;14.45;;;2.53;;
12968;SDS011;6549;53.128;8.182;2023-04-25T05:11:11;9.43;;;2.70;;
12968;SDS011;6549;53.128;8.182;2023-04-25T05:14:11;10.50;;;2.20;;
12968;SDS011;6549;53.128;8.182;2023-04-25T05:17:13;13.25;;;2.70;;
12968;SDS011;6549;53.128;8.182;2023-04-25T05:20:13;10.38;;;2.47;;
12968;SDS011;6549;53.128;8.182;2023-04-25T05:23:14;11.27;;;2.25;;
12968;SDS011;6549;53.128;8.182;2023-04-25T05:26:14;6.97;;;2.40;;
12968;SDS011;6549;53.128;8.182;2023-04-25T05:29:14;6.55;;;1.90;;
12968;SDS011;6549;53.128;8.182;2023-04-25T05:32:15;13.20;;;2.85;;
12968;SDS011;6549;53.128;8.182;2023-04-25T05:35:15;10.68;;;2.25;;
12968;SDS011;6549;53.128;8.182;2023-04-25T05:38:15;11.60;;;2.55;;
12968;SDS011;6549;53.128;8.182;2023-04-25T05:41:16;10.25;;;2.40;;
12968;SDS011;6549;53.128;8.182;2023-04-25T05:44:16;6.90;;;2.17;;
12968;SDS011;6549;53.128;8.182;2023-04-25T05:47:16;8.07;;;2.50;;
12968;SDS011;6549;53.128;8.182;2023-04-25T05:50:17;11.70;;;3.70;;
12968;SDS011;6549;53.128;8.182;2023-04-25T05:53:18;13.98;;;2.67;;
12968;SDS011;6549;53.128;8.182;2023-04-25T05:56:19;12.88;;;2.30;;
12968;SDS011;6549;53.128;8.182;2023-04-25T05:59:19;8.55;;;2.30;;
12968;SDS011;6549;53.128;8.182;2023-04-25T06:02:20;10.80;;;2.00;;
12968;SDS011;6549;53.128;8.182;2023-04-25T06:05:21;6.90;;;2.00;;
12968;SDS011;6549;53.128;8.182;2023-04-25T06:08:21;15.55;;;2.47;;
12968;SDS011;6549;53.128;8.182;2023-04-25T06:11:22;13.02;;;2.33;;
12968;SDS011;6549;53.128;8.182;2023-04-25T06:14:22;12.88;;;2.30;;
12968;SDS011;6549;53.128;8.182;2023-04-25T06:17:22;10.40;;;2.30;;
12968;SDS011;6549;53.128;8.182;2023-04-25T06:20:23;8.57;;;2.35;;
12968;SDS011;6549;53.128;8.182;2023-04-25T06:23:24;7.45;;;2.22;;
12968;SDS011;6549;53.128;8.182;2023-04-25T06:26:24;9.98;;;2.40;;
12968;SDS011;6549;53.128;8.182;2023-04-25T06:29:25;9.27;;;2.42;;
12968;SDS011;6549;53.128;8.182;2023-04-25T06:32:25;12.90;;;2.40;;
12968;SDS011;6549;53.128;8.182;2023-04-25T06:35:27;9.60;;;2.33;;
12968;SDS011;6549;53.128;8.182;2023-04-25T06:38:27;12.95;;;3.47;;
12968;SDS011;6549;53.128;8.182;2023-04-25T06:41:28;10.40;;;2.55;;
12968;SDS011;6549;53.128;8.182;2023-04-25T06:44:28;10.43;;;2.15;;
12968;SDS011;6549;53.128;8.182;2023-04-25T06:47:29;7.95;;;2.03;;
12968;SDS011;6549;53.128;8.182;2023-04-25T06:50:29;7.90;;;1.80;;
12968;SDS011;6549;53.128;8.182;2023-04-25T06:53:30;7.70;;;1.92;;
12968;SDS011;6549;53.128;8.182;2023-04-25T06:56:30;9.32;;;2.03;;
12968;SDS011;6549;53.128;8.182;2023-04-25T06:59:30;9.30;;;2.30;;
12968;SDS011;6549;53.128;8.182;2023-04-25T07:02:31;7.38;;;1.80;;
12968;SDS011;6549;53.128;8.182;2023-04-25T07:05:31;9.30;;;1.88;;
12968;SDS011;6549;53.128;8.182;2023-04-25T07:08:31;8.60;;;1.85;;
12968;SDS011;6549;53.128;8.182;2023-04-25T07:11:32;10.80;;;1.70;;
12968;SDS011;6549;53.128;8.182;2023-04-25T07:14:32;9.73;;;1.65;;
12968;SDS011;6549;53.128;8.182;2023-04-25T07:17:32;7.28;;;1.77;;
12968;SDS011;6549;53.128;8.182;2023-04-25T07:20:33;10.38;;;1.55;;
12968;SDS011;6549;53.128;8.182;2023-04-25T07:23:34;6.40;;;1.65;;
12968;SDS011;6549;53.128;8.182;2023-04-25T07:26:34;7.35;;;1.75;;
12968;SDS011;6549;53.128;8.182;2023-04-25T07:29:34;8.40;;;1.70;;
12968;SDS011;6549;53.128;8.182;2023-04-25T07:32:37;8.50;;;1.88;;
12968;SDS011;6549;53.128;8.182;2023-04-25T07:35:38;9.57;;;1.85;;
12968;SDS011;6549;53.128;8.182;2023-04-25T07:38:39;10.88;;;1.92;;
12968;SDS011;6549;53.128;8.182;2023-04-25T07:41:39;8.60;;;1.73;;
12968;SDS011;6549;53.128;8.182;2023-04-25T07:44:39;7.20;;;1.63;;
12968;SDS011;6549;53.128;8.182;2023-04-25T07:47:40;7.15;;;1.63;;
12968;SDS011;6549;53.128;8.182;2023-04-25T07:50:40;10.93;;;2.00;;
12968;SDS011;6549;53.128;8.182;2023-04-25T07:53:40;7.93;;;1.52;;
12968;SDS011;6549;53.128;8.182;2023-04-25T07:56:41;5.65;;;1.48;;
12968;SDS011;6549;53.128;8.182;2023-04-25T07:59:41;8.23;;;1.70;;
12968;SDS011;6549;53.128;8.182;2023-04-25T08:02:41;8.98;;;1.63;;
12968;SDS011;6549;53.128;8.182;2023-04-25T08:05:42;8.82;;;1.98;;
12968;SDS011;6549;53.128;8.182;2023-04-25T08:08:42;4.43;;;1.45;;
12968;SDS011;6549;53.128;8.182;2023-04-25T08:11:42;5.15;;;1.40;;
12968;SDS011;6549;53.128;8.182;2023-04-25T08:14:43;5.95;;;1.55;;
12968;SDS011;6549;53.128;8.182;2023-04-25T08:17:43;3.17;;;1.27;;
12968;SDS011;6549;53.128;8.182;2023-04-25T08:20:44;5.82;;;1.50;;
12968;SDS011;6549;53.128;8.182;2023-04-25T08:23:44;7.18;;;1.55;;
12968;SDS011;6549;53.128;8.182;2023-04-25T08:26:44;8.65;;;1.67;;
12968;SDS011;6549;53.128;8.182;2023-04-25T08:29:45;5.20;;;1.40;;
12968;SDS011;6549;53.128;8.182;2023-04-25T08:32:45;9.38;;;1.63;;
12968;SDS011;6549;53.128;8.182;2023-04-25T08:35:45;7.57;;;1.45;;
12968;SDS011;6549;53.128;8.182;2023-04-25T08:38:46;7.65;;;1.65;;
12968;SDS011;6549;53.128;8.182;2023-04-25T08:41:46;7.30;;;1.50;;
12968;SDS011;6549;53.128;8.182;2023-04-25T08:44:48;8.20;;;1.60;;
12968;SDS011;6549;53.128;8.182;2023-04-25T08:47:49;7.65;;;1.50;;
12968;SDS011;6549;53.128;8.182;2023-04-25T08:50:52;5.22;;;1.35;;
12968;SDS011;6549;53.128;8.182;2023-04-25T08:53:53;6.07;;;1.35;;
12968;SDS011;6549;53.128;8.182;2023-04-25T08:56:54;6.70;;;1.45;;
12968;SDS011;6549;53.128;8.182;2023-04-25T08:59:57;6.57;;;1.77;;
12968;SDS011;6549;53.128;8.182;2023-04-25T09:02:58;6.65;;;1.40;;
12968;SDS011;6549;53.128;8.182;2023-04-25T09:05:58;5.43;;;1.65;;
12968;SDS011;6549;53.128;8.182;2023-04-25T09:09:06;6.93;;;1.35;;
12968;SDS011;6549;53.128;8.182;2023-04-25T09:12:08;7.75;;;2.10;;
12968;SDS011;6549;53.128;8.182;2023-04-25T09:15:10;9.32;;;1.60;;
12968;SDS011;6549;53.128;8.182;2023-04-25T09:21:12;6.60;;;1.37;;
12968;SDS011;6549;53.128;8.182;2023-04-25T09:24:13;6.20;;;1.80;;
12968;SDS011;6549;53.128;8.182;2023-04-25T09:27:18;8.77;;;1.90;;
12968;SDS011;6549;53.128;8.182;2023-04-25T09:30:28;6.25;;;1.38;;
12968;SDS011;6549;53.128;8.182;2023-04-25T09:33:33;6.78;;;1.30;;
12968;SDS011;6549;53.128;8.182;2023-04-25T09:36:35;5.85;;;1.83;;
12968;SDS011;6549;53.128;8.182;2023-04-25T09:39:39;5.80;;;1.27;;
12968;SDS011;6549;53.128;8.182;2023-04-25T09:42:41;6.50;;;1.50;;
12968;SDS011;6549;53.128;8.182;2023-04-25T09:45:42;2.78;;;1.08;;
12968;SDS011;6549;53.128;8.182;2023-04-25T09:48:49;5.30;;;1.40;;
12968;SDS011;6549;53.128;8.182;2023-04-25T09:51:53;5.25;;;1.70;;
12968;SDS011;6549;53.128;8.182;2023-04-25T09:54:57;5.15;;;1.00;;
12968;SDS011;6549;53.128;8.182;2023-04-25T09:57:58;5.35;;;1.05;;
12968;SDS011;6549;53.128;8.182;2023-04-25T10:01:04;1.60;;;0.88;;
12968;SDS011;6549;53.128;8.182;2023-04-25T10:07:10;4.13;;;1.20;;
12968;SDS011;6549;53.128;8.182;2023-04-25T10:10:12;5.22;;;1.70;;
12968;SDS011;6549;53.128;8.182;2023-04-25T10:13:13;3.63;;;1.15;;
12968;SDS011;6549;53.128;8.182;2023-04-25T10:16:14;7.05;;;1.63;;
12968;SDS011;6549;53.128;8.182;2023-04-25T10:19:16;7.40;;;1.30;;
12968;SDS011;6549;53.128;8.182;2023-04-25T10:22:18;6.85;;;1.70;;
12968;SDS011;6549;53.128;8.182;2023-04-25T10:25:26;5.75;;;1.50;;
12968;SDS011;6549;53.128;8.182;2023-04-25T10:28:26;7.80;;;1.38;;
12968;SDS011;6549;53.128;8.182;2023-04-25T10:31:26;8.27;;;1.70;;
12968;SDS011;6549;53.128;8.182;2023-04-25T10:34:41;4.90;;;1.20;;
12968;SDS011;6549;53.128;8.182;2023-04-25T10:38:03;8.38;;;1.70;;
12968;SDS011;6549;53.128;8.182;2023-04-25T10:41:11;11.02;;;1.70;;
12968;SDS011;6549;53.128;8.182;2023-04-25T10:44:12;4.82;;;1.23;;
12968;SDS011;6549;53.128;8.182;2023-04-25T10:47:13;5.60;;;1.55;;
12968;SDS011;6549;53.128;8.182;2023-04-25T10:50:39;3.00;;;1.08;;
12968;SDS011;6549;53.128;8.182;2023-04-25T10:53:39;4.93;;;1.10;;
12968;SDS011;6549;53.128;8.182;2023-04-25T10:56:41;3.38;;;1.25;;
12968;SDS011;6549;53.128;8.182;2023-04-25T10:59:44;2.83;;;1.23;;
12968;SDS011;6549;53.128;8.182;2023-04-25T11:02:51;5.15;;;1.38;;
12968;SDS011;6549;53.128;8.182;2023-04-25T11:05:56;3.40;;;1.20;;
12968;SDS011;6549;53.128;8.182;2023-04-25T11:09:00;3.60;;;1.60;;
12968;SDS011;6549;53.128;8.182;2023-04-25T11:12:02;4.43;;;1.30;;
12968;SDS011;6549;53.128;8.182;2023-04-25T11:15:05;5.63;;;1.40;;
12968;SDS011;6549;53.128;8.182;2023-04-25T11:18:07;4.60;;;1.30;;
12968;SDS011;6549;53.128;8.182;2023-04-25T11:21:07;7.10;;;1.90;;
12968;SDS011;6549;53.128;8.182;2023-04-25T11:24:08;4.38;;;1.48;;
12968;SDS011;6549;53.128;8.182;2023-04-25T11:27:08;3.92;;;1.40;;
12968;SDS011;6549;53.128;8.182;2023-04-25T11:30:15;6.18;;;1.25;;
12968;SDS011;6549;53.128;8.182;2023-04-25T11:33:16;5.38;;;1.40;;
12968;SDS011;6549;53.128;8.182;2023-04-25T11:36:17;5.03;;;1.33;;
12968;SDS011;6549;53.128;8.182;2023-04-25T11:39:17;5.18;;;1.35;;
12968;SDS011;6549;53.128;8.182;2023-04-25T11:42:19;6.75;;;1.40;;
12968;SDS011;6549;53.128;8.182;2023-04-25T11:45:20;8.38;;;1.30;;
12968;SDS011;6549;53.128;8.182;2023-04-25T11:48:20;5.35;;;1.25;;
12968;SDS011;6549;53.128;8.182;2023-04-25T11:51:21;6.18;;;1.20;;
12968;SDS011;6549;53.128;8.182;2023-04-25T11:54:21;5.00;;;0.98;;
12968;SDS011;6549;53.128;8.182;2023-04-25T11:57:22;7.05;;;1.70;;
12968;SDS011;6549;53.128;8.182;2023-04-25T12:00:23;4.95;;;1.35;;
12968;SDS011;6549;53.128;8.182;2023-04-25T12:03:24;4.93;;;1.40;;
12968;SDS011;6549;53.128;8.182;2023-04-25T12:09:31;3.45;;;1.00;;
12968;SDS011;6549;53.128;8.182;2023-04-25T12:12:35;5.28;;;1.40;;
12968;SDS011;6549;53.128;8.182;2023-04-25T12:15:36;5.18;;;1.42;;
12968;SDS011;6549;53.128;8.182;2023-04-25T12:18:40;6.63;;;1.70;;
12968;SDS011;6549;53.128;8.182;2023-04-25T12:21:41;4.30;;;1.45;;
12968;SDS011;6549;53.128;8.182;2023-04-25T12:24:44;2.25;;;1.20;;
12968;SDS011;6549;53.128;8.182;2023-04-25T12:27:45;3.70;;;1.13;;
12968;SDS011;6549;53.128;8.182;2023-04-25T12:30:53;2.45;;;1.15;;
12968;SDS011;6549;53.128;8.182;2023-04-25T12:33:59;5.28;;;1.20;;
12968;SDS011;6549;53.128;8.182;2023-04-25T12:36:59;4.80;;;1.75;;
12968;SDS011;6549;53.128;8.182;2023-04-25T12:40:00;3.38;;;1.40;;
12968;SDS011;6549;53.128;8.182;2023-04-25T12:43:00;6.32;;;1.30;;
12968;SDS011;6549;53.128;8.182;2023-04-25T12:46:00;7.38;;;1.50;;
12968;SDS011;6549;53.128;8.182;2023-04-25T12:49:01;4.82;;;1.40;;
12968;SDS011;6549;53.128;8.182;2023-04-25T12:52:03;5.85;;;1.70;;
12968;SDS011;6549;53.128;8.182;2023-04-25T12:55:03;3.70;;;1.70;;
12968;SDS011;6549;53.128;8.182;2023-04-25T12:58:04;4.63;;;1.02;;
12968;SDS011;6549;53.128;8.182;2023-04-25T13:01:04;3.15;;;1.30;;
12968;SDS011;6549;53.128;8.182;2023-04-25T13:04:05;3.20;;;1.20;;
12968;SDS011;6549;53.128;8.182;2023-04-25T13:07:05;6.07;;;1.38;;
12968;SDS011;6549;53.128;8.182;2023-04-25T13:10:06;4.28;;;1.40;;
12968;SDS011;6549;53.128;8.182;2023-04-25T13:13:07;7.35;;;1.77;;
12968;SDS011;6549;53.128;8.182;2023-04-25T13:16:08;7.35;;;1.95;;
12968;SDS011;6549;53.128;8.182;2023-04-25T13:19:08;9.43;;;2.40;;
12968;SDS011;6549;53.128;8.182;2023-04-25T13:22:11;7.55;;;1.50;;
12968;SDS011;6549;53.128;8.182;2023-04-25T13:25:11;5.47;;;1.38;;
12968;SDS011;6549;53.128;8.182;2023-04-25T13:28:12;3.95;;;1.27;;
12968;SDS011;6549;53.128;8.182;2023-04-25T13:31:12;4.55;;;1.30;;
12968;SDS011;6549;53.128;8.182;2023-04-25T13:34:13;3.42;;;1.10;;
12968;SDS011;6549;53.128;8.182;2023-04-25T13:37:13;3.60;;;1.13;;
12968;SDS011;6549;53.128;8.182;2023-04-25T13:40:13;4.15;;;1.35;;
12968;SDS011;6549;53.128;8.182;2023-04-25T13:43:14;4.65;;;1.65;;
12968;SDS011;6549;53.128;8.182;2023-04-25T13:46:14;5.32;;;1.35;;
12968;SDS011;6549;53.128;8.182;2023-04-25T13:49:15;5.68;;;1.50;;
12968;SDS011;6549;53.128;8.182;2023-04-25T13:52:16;7.70;;;1.33;;
12968;SDS011;6549;53.128;8.182;2023-04-25T13:55:16;5.75;;;1.73;;
12968;SDS011;6549;53.128;8.182;2023-04-25T13:58:16;7.28;;;1.50;;
12968;SDS011;6549;53.128;8.182;2023-04-25T14:01:17;4.80;;;1.40;;
12968;SDS011;6549;53.128;8.182;2023-04-25T14:04:18;4.32;;;1.30;;
12968;SDS011;6549;53.128;8.182;2023-04-25T14:07:18;4.68;;;1.40;;
12968;SDS011;6549;53.128;8.182;2023-04-25T14:10:20;3.40;;;1.08;;
12968;SDS011;6549;53.128;8.182;2023-04-25T14:13:21;7.13;;;1.30;;
12968;SDS011;6549;53.128;8.182;2023-04-25T14:16:21;7.32;;;1.48;;
12968;SDS011;6549;53.128;8.182;2023-04-25T14:19:22;6.40;;;1.38;;
12968;SDS011;6549;53.128;8.182;2023-04-25T14:22:23;5.32;;;1.40;;
12968;SDS011;6549;53.128;8.182;2023-04-25T14:25:24;6.18;;;1.30;;
12968;SDS011;6549;53.128;8.182;2023-04-25T14:28:25;4.93;;;1.52;;
12968;SDS011;6549;53.128;8.182;2023-04-25T14:31:25;4.68;;;1.60;;
12968;SDS011;6549;53.128;8.182;2023-04-25T14:34:25;4.13;;;1.23;;
12968;SDS011;6549;53.128;8.182;2023-04-25T14:37:26;3.30;;;1.42;;
12968;SDS011;6549;53.128;8.182;2023-04-25T14:40:26;3.58;;;1.42;;
12968;SDS011;6549;53.128;8.182;2023-04-25T14:43:26;6.78;;;1.30;;
12968;SDS011;6549;53.128;8.182;2023-04-25T14:46:27;5.65;;;1.35;;
12968;SDS011;6549;53.128;8.182;2023-04-25T14:49:27;5.05;;;1.20;;
12968;SDS011;6549;53.128;8.182;2023-04-25T14:52:28;6.78;;;1.42;;
12968;SDS011;6549;53.128;8.182;2023-04-25T14:55:28;6.35;;;1.60;;
12968;SDS011;6549;53.128;8.182;2023-04-25T14:58:29;4.20;;;1.17;;
12968;SDS011;6549;53.128;8.182;2023-04-25T15:01:29;4.18;;;1.50;;
12968;SDS011;6549;53.128;8.182;2023-04-25T15:04:30;7.60;;;1.50;;
12968;SDS011;6549;53.128;8.182;2023-04-25T15:07:30;4.53;;;1.50;;
12968;SDS011;6549;53.128;8.182;2023-04-25T15:10:30;4.82;;;1.40;;
12968;SDS011;6549;53.128;8.182;2023-04-25T15:13:31;3.22;;;1.10;;
12968;SDS011;6549;53.128;8.182;2023-04-25T15:16:31;4.70;;;1.50;;
12968;SDS011;6549;53.128;8.182;2023-04-25T15:19:32;5.53;;;1.25;;
12968;SDS011;6549;53.128;8.182;2023-04-25T15:22:33;3.55;;;1.30;;
12968;SDS011;6549;53.128;8.182;2023-04-25T15:25:33;5.10;;;1.23;;
12968;SDS011;6549;53.128;8.182;2023-04-25T15:28:33;2.80;;;1.20;;
12968;SDS011;6549;53.128;8.182;2023-04-25T15:34:37;4.85;;;1.02;;
12968;SDS011;6549;53.128;8.182;2023-04-25T15:37:38;3.33;;;1.17;;
12968;SDS011;6549;53.128;8.182;2023-04-25T15:40:38;2.50;;;1.20;;
12968;SDS011;6549;53.128;8.182;2023-04-25T15:43:40;4.28;;;1.20;;
12968;SDS011;6549;53.128;8.182;2023-04-25T15:46:40;2.67;;;0.98;;
12968;SDS011;6549;53.128;8.182;2023-04-25T15:49:40;4.50;;;1.00;;
12968;SDS011;6549;53.128;8.182;2023-04-25T15:52:41;5.63;;;1.27;;
12968;SDS011;6549;53.128;8.182;2023-04-25T15:55:42;4.22;;;1.23;;
12968;SDS011;6549;53.128;8.182;2023-04-25T15:58:44;2.60;;;1.10;;
12968;SDS011;6549;53.128;8.182;2023-04-25T16:01:44;6.30;;;1.45;;
12968;SDS011;6549;53.128;8.182;2023-04-25T16:04:45;5.60;;;1.58;;
12968;SDS011;6549;53.128;8.182;2023-04-25T16:07:46;7.10;;;1.45;;
12968;SDS011;6549;53.128;8.182;2023-04-25T16:10:46;6.32;;;1.52;;
12968;SDS011;6549;53.128;8.182;2023-04-25T16:13:47;5.90;;;1.30;;
12968;SDS011;6549;53.128;8.182;2023-04-25T16:16:48;4.25;;;1.10;;
12968;SDS011;6549;53.128;8.182;2023-04-25T16:19:49;8.70;;;1.50;;
12968;SDS011;6549;53.128;8.182;2023-04-25T16:22:49;5.80;;;1.45;;
12968;SDS011;6549;53.128;8.182;2023-04-25T16:25:49;11.27;;;1.83;;
12968;SDS011;6549;53.128;8.182;2023-04-25T16:28:50;5.35;;;1.70;;
12968;SDS011;6549;53.128;8.182;2023-04-25T16:31:50;4.15;;;1.45;;
12968;SDS011;6549;53.128;8.182;2023-04-25T16:34:50;6.50;;;1.60;;
12968;SDS011;6549;53.128;8.182;2023-04-25T16:37:51;6.97;;;1.92;;
12968;SDS011;6549;53.128;8.182;2023-04-25T16:40:51;8.68;;;1.77;;
12968;SDS011;6549;53.128;8.182;2023-04-25T16:43:53;5.93;;;1.33;;
12968;SDS011;6549;53.128;8.182;2023-04-25T16:46:53;8.88;;;1.42;;
12968;SDS011;6549;53.128;8.182;2023-04-25T16:49:54;5.60;;;1.40;;
12968;SDS011;6549;53.128;8.182;2023-04-25T16:52:54;4.70;;;1.35;;
12968;SDS011;6549;53.128;8.182;2023-04-25T16:55:54;5.10;;;1.40;;
12968;SDS011;6549;53.128;8.182;2023-04-25T16:58:55;2.63;;;1.00;;
12968;SDS011;6549;53.128;8.182;2023-04-25T17:01:57;4.30;;;1.30;;
12968;SDS011;6549;53.128;8.182;2023-04-25T17:04:58;8.50;;;1.42;;
12968;SDS011;6549;53.128;8.182;2023-04-25T17:07:58;5.13;;;1.20;;
12968;SDS011;6549;53.128;8.182;2023-04-25T17:11:00;7.35;;;1.30;;
12968;SDS011;6549;53.128;8.182;2023-04-25T17:14:01;4.82;;;1.40;;
12968;SDS011;6549;53.128;8.182;2023-04-25T17:17:02;5.30;;;1.38;;
12968;SDS011;6549;53.128;8.182;2023-04-25T17:20:03;5.57;;;1.35;;
12968;SDS011;6549;53.128;8.182;2023-04-25T17:23:05;10.02;;;1.60;;
12968;SDS011;6549;53.128;8.182;2023-04-25T17:26:06;5.30;;;1.20;;
12968;SDS011;6549;53.128;8.182;2023-04-25T17:29:06;11.57;;;1.67;;
12968;SDS011;6549;53.128;8.182;2023-04-25T17:32:06;7.80;;;1.48;;
12968;SDS011;6549;53.128;8.182;2023-04-25T17:35:07;5.90;;;1.60;;
12968;SDS011;6549;53.128;8.182;2023-04-25T17:38:08;6.65;;;1.42;;
12968;SDS011;6549;53.128;8.182;2023-04-25T17:41:09;7.05;;;1.20;;
12968;SDS011;6549;53.128;8.182;2023-04-25T17:44:09;5.82;;;1.33;;
12968;SDS011;6549;53.128;8.182;2023-04-25T17:47:10;6.25;;;1.27;;
12968;SDS011;6549;53.128;8.182;2023-04-25T17:50:10;6.22;;;1.70;;
12968;SDS011;6549;53.128;8.182;2023-04-25T17:53:11;6.13;;;1.65;;
12968;SDS011;6549;53.128;8.182;2023-04-25T17:56:12;6.22;;;1.60;;
12968;SDS011;6549;53.128;8.182;2023-04-25T17:59:12;6.13;;;1.42;;
12968;SDS011;6549;53.128;8.182;2023-04-25T18:02:13;5.10;;;1.35;;
12968;SDS011;6549;53.128;8.182;2023-04-25T18:05:14;6.63;;;1.40;;
12968;SDS011;6549;53.128;8.182;2023-04-25T18:08:15;6.32;;;1.88;;
12968;SDS011;6549;53.128;8.182;2023-04-25T18:11:15;6.43;;;1.33;;
12968;SDS011;6549;53.128;8.182;2023-04-25T18:14:16;9.05;;;1.83;;
12968;SDS011;6549;53.128;8.182;2023-04-25T18:17:16;7.85;;;1.40;;
12968;SDS011;6549;53.128;8.182;2023-04-25T18:20:16;7.15;;;1.60;;
12968;SDS011;6549;53.128;8.182;2023-04-25T18:23:18;5.45;;;1.50;;
12968;SDS011;6549;53.128;8.182;2023-04-25T18:26:18;9.18;;;1.42;;
12968;SDS011;6549;53.128;8.182;2023-04-25T18:29:19;5.05;;;1.30;;
12968;SDS011;6549;53.128;8.182;2023-04-25T18:32:19;8.98;;;1.60;;
12968;SDS011;6549;53.128;8.182;2023-04-25T18:35:20;7.43;;;1.60;;